sensor_id;sensor_type;location;lat;lon;timestamp;temperature;humidity
38209;DHT22;24016;52.102;11.584;2023-03-02T00:01:04;-3.10;99.90
38209;DHT22;24016;52.102;11.584;2023-03-02T00:03:32;-3.10;99.90
38209;DHT22;24016;52.102;11.584;2023-03-02T00:05:59;-3.10;99.90
38209;DHT22;24016;52.102;11.584;2023-03-02T00:08:25;-3.10;99.90
38209;DHT22;24016;52.102;11.584;2023-03-02T00:10:51;-3.20;99.90
38209;DHT22;24016;52.102;11.584;2023-03-02T00:13:18;-3.20;99.90
38209;DHT22;24016;52.102;11.584;2023-03-02T00:15:44;-3.20;99.90
38209;DHT22;24016;52.102;11.584;2023-03-02T00:18:10;-3.30;99.90
38209;DHT22;24016;52.102;11.584;2023-03-02T00:20:35;-3.30;99.90
38209;DHT22;24016;52.102;11.584;2023-03-02T00:23:01;-3.40;99.90
38209;DHT22;24016;52.102;11.584;2023-03-02T00:25:27;-3.40;99.90
38209;DHT22;24016;52.102;11.584;2023-03-02T00:27:53;-3.40;99.90
38209;DHT22;24016;52.102;11.584;2023-03-02T00:30:18;-3.40;99.90
38209;DHT22;24016;52.102;11.584;2023-03-02T00:32:44;-3.30;99.90
38209;DHT22;24016;52.102;11.584;2023-03-02T00:35:10;-3.30;99.90
38209;DHT22;24016;52.102;11.584;2023-03-02T00:37:36;-3.30;99.90
38209;DHT22;24016;52.102;11.584;2023-03-02T00:40:03;-3.30;99.90
38209;DHT22;24016;52.102;11.584;2023-03-02T00:42:31;-3.30;99.90
38209;DHT22;24016;52.102;11.584;2023-03-02T00:44:56;-3.30;99.90
38209;DHT22;24016;52.102;11.584;2023-03-02T00:47:23;-3.30;99.90
38209;DHT22;24016;52.102;11.584;2023-03-02T00:49:49;-3.40;99.90
38209;DHT22;24016;52.102;11.584;2023-03-02T00:52:15;-3.40;99.90
38209;DHT22;24016;52.102;11.584;2023-03-02T00:54:41;-3.40;99.90
38209;DHT22;24016;52.102;11.584;2023-03-02T00:57:07;-3.40;99.90
38209;DHT22;24016;52.102;11.584;2023-03-02T00:59:33;-3.40;99.90
38209;DHT22;24016;52.102;11.584;2023-03-02T01:02:01;-3.50;99.90
38209;DHT22;24016;52.102;11.584;2023-03-02T01:04:37;-3.50;99.90
38209;DHT22;24016;52.102;11.584;2023-03-02T01:07:09;-3.40;99.90
38209;DHT22;24016;52.102;11.584;2023-03-02T01:09:35;-3.50;99.90
38209;DHT22;24016;52.102;11.584;2023-03-02T01:12:01;-3.50;99.90
38209;DHT22;24016;52.102;11.584;2023-03-02T01:14:27;-3.50;99.90
38209;DHT22;24016;52.102;11.584;2023-03-02T01:16:52;-3.50;99.90
38209;DHT22;24016;52.102;11.584;2023-03-02T01:19:18;-3.60;99.90
38209;DHT22;24016;52.102;11.584;2023-03-02T01:21:43;-3.60;99.90
38209;DHT22;24016;52.102;11.584;2023-03-02T01:24:09;-3.60;99.90
38209;DHT22;24016;52.102;11.584;2023-03-02T01:26:36;-3.60;99.90
38209;DHT22;24016;52.102;11.584;2023-03-02T01:29:02;-3.60;99.90
38209;DHT22;24016;52.102;11.584;2023-03-02T01:31:28;-3.60;99.90
38209;DHT22;24016;52.102;11.584;2023-03-02T01:33:53;-3.60;99.90
38209;DHT22;24016;52.102;11.584;2023-03-02T01:36:20;-3.60;99.90
38209;DHT22;24016;52.102;11.584;2023-03-02T01:38:46;-3.60;99.90
38209;DHT22;24016;52.102;11.584;2023-03-02T01:41:12;-3.60;99.90
38209;DHT22;24016;52.102;11.584;2023-03-02T01:43:37;-3.60;99.90
38209;DHT22;24016;52.102;11.584;2023-03-02T01:48:52;-3.60;99.90
38209;DHT22;24016;52.102;11.584;2023-03-02T01:51:22;-3.60;99.90
38209;DHT22;24016;52.102;11.584;2023-03-02T01:53:51;-3.70;99.90
38209;DHT22;24016;52.102;11.584;2023-03-02T01:56:22;-3.60;99.90
38209;DHT22;24016;52.102;11.584;2023-03-02T01:58:52;-3.70;99.90
38209;DHT22;24016;52.102;11.584;2023-03-02T02:01:19;-3.70;99.90
38209;DHT22;24016;52.102;11.584;2023-03-02T02:03:47;-3.70;99.90
38209;DHT22;24016;52.102;11.584;2023-03-02T02:06:28;-3.70;99.90
38209;DHT22;24016;52.102;11.584;2023-03-02T02:08:56;-3.70;99.90
38209;DHT22;24016;52.102;11.584;2023-03-02T02:11:23;-3.60;99.90
38209;DHT22;24016;52.102;11.584;2023-03-02T02:13:57;-3.70;99.90
38209;DHT22;24016;52.102;11.584;2023-03-02T02:16:24;-3.70;99.90
38209;DHT22;24016;52.102;11.584;2023-03-02T02:18:50;-3.70;99.90
38209;DHT22;24016;52.102;11.584;2023-03-02T02:21:17;-3.80;99.90
38209;DHT22;24016;52.102;11.584;2023-03-02T02:24:11;-3.80;99.90
38209;DHT22;24016;52.102;11.584;2023-03-02T02:26:44;-3.80;99.90
38209;DHT22;24016;52.102;11.584;2023-03-02T02:31:58;-3.80;99.90
38209;DHT22;24016;52.102;11.584;2023-03-02T02:39:43;-3.70;99.90
38209;DHT22;24016;52.102;11.584;2023-03-02T02:42:27;-3.70;99.90
38209;DHT22;24016;52.102;11.584;2023-03-02T02:44:58;-3.70;99.90
38209;DHT22;24016;52.102;11.584;2023-03-02T02:47:24;-3.80;99.90
38209;DHT22;24016;52.102;11.584;2023-03-02T02:49:52;-3.80;99.90
38209;DHT22;24016;52.102;11.584;2023-03-02T02:52:21;-3.80;99.90
38209;DHT22;24016;52.102;11.584;2023-03-02T02:54:51;-3.80;99.90
38209;DHT22;24016;52.102;11.584;2023-03-02T02:57:18;-3.70;99.90
38209;DHT22;24016;52.102;11.584;2023-03-02T02:59:47;-3.70;99.90
38209;DHT22;24016;52.102;11.584;2023-03-02T03:02:19;-3.80;99.90
38209;DHT22;24016;52.102;11.584;2023-03-02T03:04:45;-3.80;99.90
38209;DHT22;24016;52.102;11.584;2023-03-02T03:07:24;-3.80;99.90
38209;DHT22;24016;52.102;11.584;2023-03-02T03:09:59;-3.80;99.90
38209;DHT22;24016;52.102;11.584;2023-03-02T03:12:30;-3.90;99.90
38209;DHT22;24016;52.102;11.584;2023-03-02T03:14:58;-3.90;99.90
38209;DHT22;24016;52.102;11.584;2023-03-02T03:17:24;-3.90;99.90
38209;DHT22;24016;52.102;11.584;2023-03-02T03:19:50;-3.90;99.90
38209;DHT22;24016;52.102;11.584;2023-03-02T03:22:16;-4.00;99.90
38209;DHT22;24016;52.102;11.584;2023-03-02T03:24:43;-4.10;99.90
38209;DHT22;24016;52.102;11.584;2023-03-02T03:27:10;-4.00;99.90
38209;DHT22;24016;52.102;11.584;2023-03-02T03:29:39;-4.00;99.90
38209;DHT22;24016;52.102;11.584;2023-03-02T03:32:05;-4.00;99.90
38209;DHT22;24016;52.102;11.584;2023-03-02T03:34:32;-4.00;99.90
38209;DHT22;24016;52.102;11.584;2023-03-02T03:36:58;-4.00;99.90
38209;DHT22;24016;52.102;11.584;2023-03-02T03:39:28;-4.00;99.90
38209;DHT22;24016;52.102;11.584;2023-03-02T03:41:54;-3.90;99.90
38209;DHT22;24016;52.102;11.584;2023-03-02T03:44:20;-3.90;99.90
38209;DHT22;24016;52.102;11.584;2023-03-02T03:46:45;-3.90;99.90
38209;DHT22;24016;52.102;11.584;2023-03-02T03:49:11;-3.90;99.90
38209;DHT22;24016;52.102;11.584;2023-03-02T03:51:36;-3.90;99.90
38209;DHT22;24016;52.102;11.584;2023-03-02T03:54:03;-3.90;99.90
38209;DHT22;24016;52.102;11.584;2023-03-02T03:56:31;-3.90;99.90
38209;DHT22;24016;52.102;11.584;2023-03-02T03:58:58;-3.80;99.90
38209;DHT22;24016;52.102;11.584;2023-03-02T04:01:39;-3.90;99.90
38209;DHT22;24016;52.102;11.584;2023-03-02T04:04:07;-3.80;99.90
38209;DHT22;24016;52.102;11.584;2023-03-02T04:06:33;-3.80;99.90
38209;DHT22;24016;52.102;11.584;2023-03-02T04:08:59;-3.90;99.90
38209;DHT22;24016;52.102;11.584;2023-03-02T04:11:31;-3.90;99.90
38209;DHT22;24016;52.102;11.584;2023-03-02T04:13:57;-3.90;99.90
38209;DHT22;24016;52.102;11.584;2023-03-02T04:16:22;-3.90;99.90
38209;DHT22;24016;52.102;11.584;2023-03-02T04:18:48;-3.90;99.90
38209;DHT22;24016;52.102;11.584;2023-03-02T04:21:13;-3.90;99.90
38209;DHT22;24016;52.102;11.584;2023-03-02T04:23:39;-3.90;99.90
38209;DHT22;24016;52.102;11.584;2023-03-02T04:26:04;-4.00;99.90
38209;DHT22;24016;52.102;11.584;2023-03-02T04:28:31;-3.90;99.90
38209;DHT22;24016;52.102;11.584;2023-03-02T04:30:56;-3.90;99.90
38209;DHT22;24016;52.102;11.584;2023-03-02T04:33:22;-4.00;99.90
38209;DHT22;24016;52.102;11.584;2023-03-02T04:35:47;-4.00;99.90
38209;DHT22;24016;52.102;11.584;2023-03-02T04:38:13;-4.10;99.90
38209;DHT22;24016;52.102;11.584;2023-03-02T04:40:39;-4.10;99.90
38209;DHT22;24016;52.102;11.584;2023-03-02T04:43:05;-4.10;99.90
38209;DHT22;24016;52.102;11.584;2023-03-02T04:45:30;-4.10;99.90
38209;DHT22;24016;52.102;11.584;2023-03-02T04:47:56;-4.10;99.90
38209;DHT22;24016;52.102;11.584;2023-03-02T04:50:22;-4.10;99.90
38209;DHT22;24016;52.102;11.584;2023-03-02T04:52:47;-4.10;99.90
38209;DHT22;24016;52.102;11.584;2023-03-02T04:55:19;-4.10;99.90
38209;DHT22;24016;52.102;11.584;2023-03-02T04:57:45;-4.00;99.90
38209;DHT22;24016;52.102;11.584;2023-03-02T05:00:11;-3.90;99.90
38209;DHT22;24016;52.102;11.584;2023-03-02T05:02:38;-3.70;99.90
38209;DHT22;24016;52.102;11.584;2023-03-02T05:05:04;-3.50;99.90
38209;DHT22;24016;52.102;11.584;2023-03-02T05:07:30;-3.40;99.90
38209;DHT22;24016;52.102;11.584;2023-03-02T05:09:55;-3.30;99.90
38209;DHT22;24016;52.102;11.584;2023-03-02T05:12:20;-3.20;99.90
38209;DHT22;24016;52.102;11.584;2023-03-02T05:14:46;-3.10;99.90
38209;DHT22;24016;52.102;11.584;2023-03-02T05:17:12;-3.20;99.90
38209;DHT22;24016;52.102;11.584;2023-03-02T05:19:38;-3.10;99.90
38209;DHT22;24016;52.102;11.584;2023-03-02T05:22:04;-3.10;99.90
38209;DHT22;24016;52.102;11.584;2023-03-02T05:24:29;-3.10;99.90
38209;DHT22;24016;52.102;11.584;2023-03-02T05:26:55;-3.10;99.90
38209;DHT22;24016;52.102;11.584;2023-03-02T05:29:21;-3.10;99.90
38209;DHT22;24016;52.102;11.584;2023-03-02T05:31:49;-3.00;99.90
38209;DHT22;24016;52.102;11.584;2023-03-02T05:34:16;-3.00;99.90
38209;DHT22;24016;52.102;11.584;2023-03-02T05:36:42;-3.00;99.90
38209;DHT22;24016;52.102;11.584;2023-03-02T05:39:10;-3.00;99.90
38209;DHT22;24016;52.102;11.584;2023-03-02T05:41:36;-3.00;99.90
38209;DHT22;24016;52.102;11.584;2023-03-02T05:44:03;-3.00;99.90
38209;DHT22;24016;52.102;11.584;2023-03-02T05:46:29;-3.00;99.90
38209;DHT22;24016;52.102;11.584;2023-03-02T05:48:54;-3.00;99.90
38209;DHT22;24016;52.102;11.584;2023-03-02T05:51:20;-3.00;99.90
38209;DHT22;24016;52.102;11.584;2023-03-02T05:53:45;-2.90;99.90
38209;DHT22;24016;52.102;11.584;2023-03-02T05:56:11;-2.90;99.90
38209;DHT22;24016;52.102;11.584;2023-03-02T05:58:36;-2.90;99.90
38209;DHT22;24016;52.102;11.584;2023-03-02T06:01:07;-2.90;99.90
38209;DHT22;24016;52.102;11.584;2023-03-02T06:03:34;-2.90;99.90
38209;DHT22;24016;52.102;11.584;2023-03-02T06:05:59;-2.90;99.90
38209;DHT22;24016;52.102;11.584;2023-03-02T06:08:25;-2.90;99.90
38209;DHT22;24016;52.102;11.584;2023-03-02T06:10:54;-2.80;99.90
38209;DHT22;24016;52.102;11.584;2023-03-02T06:13:20;-2.90;99.90
38209;DHT22;24016;52.102;11.584;2023-03-02T06:15:45;-2.90;99.90
38209;DHT22;24016;52.102;11.584;2023-03-02T06:18:11;-2.90;99.90
38209;DHT22;24016;52.102;11.584;2023-03-02T06:20:37;-2.90;99.90
38209;DHT22;24016;52.102;11.584;2023-03-02T06:23:02;-2.90;99.90
38209;DHT22;24016;52.102;11.584;2023-03-02T06:25:28;-2.90;99.90
38209;DHT22;24016;52.102;11.584;2023-03-02T06:27:53;-2.90;99.90
38209;DHT22;24016;52.102;11.584;2023-03-02T06:30:22;-2.90;99.90
38209;DHT22;24016;52.102;11.584;2023-03-02T06:32:47;-2.90;99.90
38209;DHT22;24016;52.102;11.584;2023-03-02T06:35:13;-2.80;99.90
38209;DHT22;24016;52.102;11.584;2023-03-02T06:37:39;-2.80;99.90
38209;DHT22;24016;52.102;11.584;2023-03-02T06:40:06;-2.80;99.90
38209;DHT22;24016;52.102;11.584;2023-03-02T06:42:36;-2.70;99.90
38209;DHT22;24016;52.102;11.584;2023-03-02T06:45:03;-2.60;99.90
38209;DHT22;24016;52.102;11.584;2023-03-02T06:47:29;-2.50;99.90
38209;DHT22;24016;52.102;11.584;2023-03-02T06:49:54;-2.50;99.90
38209;DHT22;24016;52.102;11.584;2023-03-02T06:52:21;-2.40;99.90
38209;DHT22;24016;52.102;11.584;2023-03-02T06:54:46;-2.40;99.90
38209;DHT22;24016;52.102;11.584;2023-03-02T06:57:12;-2.40;99.90
38209;DHT22;24016;52.102;11.584;2023-03-02T06:59:37;-2.40;99.90
38209;DHT22;24016;52.102;11.584;2023-03-02T07:02:03;-2.30;99.90
38209;DHT22;24016;52.102;11.584;2023-03-02T07:04:28;-2.20;99.90
38209;DHT22;24016;52.102;11.584;2023-03-02T07:06:54;-2.10;99.90
38209;DHT22;24016;52.102;11.584;2023-03-02T07:09:20;-2.00;99.90
38209;DHT22;24016;52.102;11.584;2023-03-02T07:11:46;-2.00;99.90
38209;DHT22;24016;52.102;11.584;2023-03-02T07:14:11;-2.00;99.90
38209;DHT22;24016;52.102;11.584;2023-03-02T07:16:37;-1.90;99.90
38209;DHT22;24016;52.102;11.584;2023-03-02T07:19:03;-1.80;99.90
38209;DHT22;24016;52.102;11.584;2023-03-02T07:21:28;-1.80;99.90
38209;DHT22;24016;52.102;11.584;2023-03-02T07:23:54;-1.80;99.90
38209;DHT22;24016;52.102;11.584;2023-03-02T07:26:19;-1.80;99.90
38209;DHT22;24016;52.102;11.584;2023-03-02T07:28:45;-1.80;99.90
38209;DHT22;24016;52.102;11.584;2023-03-02T07:31:11;-1.90;99.90
38209;DHT22;24016;52.102;11.584;2023-03-02T07:33:37;-1.80;99.90
38209;DHT22;24016;52.102;11.584;2023-03-02T07:36:04;-1.80;99.90
38209;DHT22;24016;52.102;11.584;2023-03-02T07:38:29;-1.80;99.90
38209;DHT22;24016;52.102;11.584;2023-03-02T07:40:55;-1.70;99.90
38209;DHT22;24016;52.102;11.584;2023-03-02T07:43:20;-1.60;99.90
38209;DHT22;24016;52.102;11.584;2023-03-02T07:45:48;-1.50;99.90
38209;DHT22;24016;52.102;11.584;2023-03-02T07:48:14;-1.50;99.90
38209;DHT22;24016;52.102;11.584;2023-03-02T07:50:39;-1.40;99.90
38209;DHT22;24016;52.102;11.584;2023-03-02T07:53:05;-1.40;99.90
38209;DHT22;24016;52.102;11.584;2023-03-02T07:55:30;-1.30;99.90
38209;DHT22;24016;52.102;11.584;2023-03-02T07:57:56;-1.30;99.90
38209;DHT22;24016;52.102;11.584;2023-03-02T08:00:21;-1.20;99.90
38209;DHT22;24016;52.102;11.584;2023-03-02T08:02:47;-1.10;99.90
38209;DHT22;24016;52.102;11.584;2023-03-02T08:05:13;-1.20;99.90
38209;DHT22;24016;52.102;11.584;2023-03-02T08:07:38;-1.10;99.90
38209;DHT22;24016;52.102;11.584;2023-03-02T08:10:05;-1.10;99.90
38209;DHT22;24016;52.102;11.584;2023-03-02T08:12:31;-1.10;99.90
38209;DHT22;24016;52.102;11.584;2023-03-02T08:14:57;-1.10;99.90
38209;DHT22;24016;52.102;11.584;2023-03-02T08:17:22;-1.10;99.90
38209;DHT22;24016;52.102;11.584;2023-03-02T08:19:48;-0.90;99.90
38209;DHT22;24016;52.102;11.584;2023-03-02T08:22:13;-0.80;99.90
38209;DHT22;24016;52.102;11.584;2023-03-02T08:24:39;-0.60;99.90
38209;DHT22;24016;52.102;11.584;2023-03-02T08:27:06;-0.40;99.90
38209;DHT22;24016;52.102;11.584;2023-03-02T08:29:32;-0.20;99.90
38209;DHT22;24016;52.102;11.584;2023-03-02T08:31:58;-0.20;99.90
38209;DHT22;24016;52.102;11.584;2023-03-02T08:34:23;-0.10;99.90
38209;DHT22;24016;52.102;11.584;2023-03-02T08:36:50;0.00;99.90
38209;DHT22;24016;52.102;11.584;2023-03-02T08:39:16;0.10;99.90
38209;DHT22;24016;52.102;11.584;2023-03-02T08:41:41;0.20;99.90
38209;DHT22;24016;52.102;11.584;2023-03-02T08:44:07;0.30;99.90
38209;DHT22;24016;52.102;11.584;2023-03-02T08:46:33;0.50;99.90
38209;DHT22;24016;52.102;11.584;2023-03-02T08:48:59;0.60;99.90
38209;DHT22;24016;52.102;11.584;2023-03-02T08:51:25;0.70;99.90
38209;DHT22;24016;52.102;11.584;2023-03-02T08:53:52;0.80;99.90
38209;DHT22;24016;52.102;11.584;2023-03-02T08:56:27;0.70;99.90
38209;DHT22;24016;52.102;11.584;2023-03-02T08:58:54;0.50;99.90
38209;DHT22;24016;52.102;11.584;2023-03-02T09:01:29;0.50;99.90
38209;DHT22;24016;52.102;11.584;2023-03-02T09:03:55;0.50;99.90
38209;DHT22;24016;52.102;11.584;2023-03-02T09:06:22;0.50;99.90
38209;DHT22;24016;52.102;11.584;2023-03-02T09:08:48;0.50;99.90
38209;DHT22;24016;52.102;11.584;2023-03-02T09:11:13;0.60;99.90
38209;DHT22;24016;52.102;11.584;2023-03-02T09:13:39;0.70;99.90
38209;DHT22;24016;52.102;11.584;2023-03-02T09:16:05;0.70;99.90
38209;DHT22;24016;52.102;11.584;2023-03-02T09:18:33;0.60;99.90
38209;DHT22;24016;52.102;11.584;2023-03-02T09:20:58;0.50;99.90
38209;DHT22;24016;52.102;11.584;2023-03-02T09:23:25;0.60;99.90
38209;DHT22;24016;52.102;11.584;2023-03-02T09:25:51;0.30;99.90
38209;DHT22;24016;52.102;11.584;2023-03-02T09:28:17;0.20;99.90
38209;DHT22;24016;52.102;11.584;2023-03-02T09:31:09;0.30;99.90
38209;DHT22;24016;52.102;11.584;2023-03-02T09:33:35;0.30;99.90
38209;DHT22;24016;52.102;11.584;2023-03-02T09:36:06;0.60;99.90
38209;DHT22;24016;52.102;11.584;2023-03-02T09:38:32;0.80;99.90
38209;DHT22;24016;52.102;11.584;2023-03-02T09:43:52;1.20;99.90
38209;DHT22;24016;52.102;11.584;2023-03-02T09:46:26;1.50;99.90
38209;DHT22;24016;52.102;11.584;2023-03-02T09:52:42;1.30;99.90
38209;DHT22;24016;52.102;11.584;2023-03-02T09:55:15;1.10;99.90
38209;DHT22;24016;52.102;11.584;2023-03-02T09:57:42;1.00;99.90
38209;DHT22;24016;52.102;11.584;2023-03-02T10:00:44;0.90;99.90
38209;DHT22;24016;52.102;11.584;2023-03-02T10:03:11;0.80;99.90
38209;DHT22;24016;52.102;11.584;2023-03-02T10:05:46;0.90;99.90
38209;DHT22;24016;52.102;11.584;2023-03-02T10:08:17;1.10;99.90
38209;DHT22;24016;52.102;11.584;2023-03-02T10:10:53;1.20;99.90
38209;DHT22;24016;52.102;11.584;2023-03-02T10:13:47;1.40;99.90
38209;DHT22;24016;52.102;11.584;2023-03-02T10:16:19;1.60;99.90
38209;DHT22;24016;52.102;11.584;2023-03-02T10:21:24;1.70;99.90
38209;DHT22;24016;52.102;11.584;2023-03-02T10:24:15;1.90;99.90
38209;DHT22;24016;52.102;11.584;2023-03-02T10:26:49;2.20;99.90
38209;DHT22;24016;52.102;11.584;2023-03-02T10:31:47;2.00;99.90
38209;DHT22;24016;52.102;11.584;2023-03-02T10:34:17;2.10;99.90
38209;DHT22;24016;52.102;11.584;2023-03-02T10:36:43;2.10;99.90
38209;DHT22;24016;52.102;11.584;2023-03-02T10:39:14;2.00;99.90
38209;DHT22;24016;52.102;11.584;2023-03-02T10:41:50;1.80;99.90
38209;DHT22;24016;52.102;11.584;2023-03-02T10:44:32;1.50;99.90
38209;DHT22;24016;52.102;11.584;2023-03-02T10:47:01;1.60;99.90
38209;DHT22;24016;52.102;11.584;2023-03-02T10:49:41;1.60;99.90
38209;DHT22;24016;52.102;11.584;2023-03-02T10:52:14;1.60;99.90
38209;DHT22;24016;52.102;11.584;2023-03-02T10:54:41;1.60;99.90
38209;DHT22;24016;52.102;11.584;2023-03-02T10:57:29;1.60;99.90
38209;DHT22;24016;52.102;11.584;2023-03-02T11:02:33;2.00;99.90
38209;DHT22;24016;52.102;11.584;2023-03-02T11:07:58;2.10;99.90
38209;DHT22;24016;52.102;11.584;2023-03-02T11:10:29;2.20;99.90
38209;DHT22;24016;52.102;11.584;2023-03-02T11:12:57;2.20;99.90
38209;DHT22;24016;52.102;11.584;2023-03-02T11:20:33;2.40;99.90
38209;DHT22;24016;52.102;11.584;2023-03-02T11:25:38;2.50;99.90
38209;DHT22;24016;52.102;11.584;2023-03-02T11:28:11;2.50;99.90
38209;DHT22;24016;52.102;11.584;2023-03-02T11:30:45;2.60;99.90
38209;DHT22;24016;52.102;11.584;2023-03-02T11:33:20;2.50;99.90
38209;DHT22;24016;52.102;11.584;2023-03-02T11:35:55;2.70;99.90
38209;DHT22;24016;52.102;11.584;2023-03-02T11:38:29;2.90;99.90
38209;DHT22;24016;52.102;11.584;2023-03-02T11:41:12;3.00;99.90
38209;DHT22;24016;52.102;11.584;2023-03-02T11:43:40;3.00;99.90
38209;DHT22;24016;52.102;11.584;2023-03-02T11:46:06;3.10;99.90
38209;DHT22;24016;52.102;11.584;2023-03-02T11:48:48;3.10;99.90
38209;DHT22;24016;52.102;11.584;2023-03-02T11:54:28;3.00;99.90
38209;DHT22;24016;52.102;11.584;2023-03-02T11:56:48;2.90;99.90
38209;DHT22;24016;52.102;11.584;2023-03-02T11:59:17;3.00;99.90
38209;DHT22;24016;52.102;11.584;2023-03-02T12:01:46;2.90;99.90
38209;DHT22;24016;52.102;11.584;2023-03-02T12:06:51;3.20;99.90
38209;DHT22;24016;52.102;11.584;2023-03-02T12:14:38;3.10;99.90
38209;DHT22;24016;52.102;11.584;2023-03-02T12:19:53;3.10;99.90
38209;DHT22;24016;52.102;11.584;2023-03-02T12:22:30;3.00;99.90
38209;DHT22;24016;52.102;11.584;2023-03-02T12:27:47;3.20;99.90
38209;DHT22;24016;52.102;11.584;2023-03-02T12:35:35;3.30;99.90
38209;DHT22;24016;52.102;11.584;2023-03-02T12:41:14;2.80;99.90
38209;DHT22;24016;52.102;11.584;2023-03-02T12:44:03;3.00;99.90
38209;DHT22;24016;52.102;11.584;2023-03-02T12:46:32;3.20;99.90
38209;DHT22;24016;52.102;11.584;2023-03-02T12:52:00;3.20;99.90
38209;DHT22;24016;52.102;11.584;2023-03-02T12:54:29;3.30;99.90
38209;DHT22;24016;52.102;11.584;2023-03-02T12:57:15;3.40;99.90
38209;DHT22;24016;52.102;11.584;2023-03-02T12:59:42;3.60;99.90
38209;DHT22;24016;52.102;11.584;2023-03-02T13:02:15;3.60;99.90
38209;DHT22;24016;52.102;11.584;2023-03-02T13:04:41;3.80;99.90
38209;DHT22;24016;52.102;11.584;2023-03-02T13:07:17;3.80;99.90
38209;DHT22;24016;52.102;11.584;2023-03-02T13:09:48;3.60;99.90
38209;DHT22;24016;52.102;11.584;2023-03-02T13:12:14;3.40;99.90
38209;DHT22;24016;52.102;11.584;2023-03-02T13:14:40;3.50;99.90
38209;DHT22;24016;52.102;11.584;2023-03-02T13:17:28;3.60;99.90
38209;DHT22;24016;52.102;11.584;2023-03-02T13:19:57;3.60;99.90
38209;DHT22;24016;52.102;11.584;2023-03-02T13:22:22;3.50;99.90
38209;DHT22;24016;52.102;11.584;2023-03-02T13:24:54;3.50;99.90
38209;DHT22;24016;52.102;11.584;2023-03-02T13:27:21;3.60;99.90
38209;DHT22;24016;52.102;11.584;2023-03-02T13:29:47;3.50;99.90
38209;DHT22;24016;52.102;11.584;2023-03-02T13:32:22;3.30;99.90
38209;DHT22;24016;52.102;11.584;2023-03-02T13:34:53;3.20;99.90
38209;DHT22;24016;52.102;11.584;2023-03-02T13:37:32;3.40;99.90
38209;DHT22;24016;52.102;11.584;2023-03-02T13:40:01;3.50;99.90
38209;DHT22;24016;52.102;11.584;2023-03-02T13:42:34;3.40;99.90
38209;DHT22;24016;52.102;11.584;2023-03-02T13:45:26;3.30;99.90
38209;DHT22;24016;52.102;11.584;2023-03-02T13:47:53;3.20;99.90
38209;DHT22;24016;52.102;11.584;2023-03-02T13:50:27;3.30;99.90
38209;DHT22;24016;52.102;11.584;2023-03-02T13:52:56;3.40;99.90
38209;DHT22;24016;52.102;11.584;2023-03-02T13:55:22;3.30;99.90
38209;DHT22;24016;52.102;11.584;2023-03-02T13:57:48;3.50;99.90
38209;DHT22;24016;52.102;11.584;2023-03-02T14:00:30;3.60;99.90
38209;DHT22;24016;52.102;11.584;2023-03-02T14:02:57;3.50;99.90
38209;DHT22;24016;52.102;11.584;2023-03-02T14:05:24;3.70;99.90
38209;DHT22;24016;52.102;11.584;2023-03-02T14:07:51;4.00;99.90
38209;DHT22;24016;52.102;11.584;2023-03-02T14:10:19;4.00;99.90
38209;DHT22;24016;52.102;11.584;2023-03-02T14:12:54;3.90;99.90
38209;DHT22;24016;52.102;11.584;2023-03-02T14:15:21;4.00;99.90
38209;DHT22;24016;52.102;11.584;2023-03-02T14:17:46;4.10;99.90
38209;DHT22;24016;52.102;11.584;2023-03-02T14:20:19;4.10;99.90
38209;DHT22;24016;52.102;11.584;2023-03-02T14:22:46;4.10;99.90
38209;DHT22;24016;52.102;11.584;2023-03-02T14:25:12;4.00;99.90
38209;DHT22;24016;52.102;11.584;2023-03-02T14:27:38;3.80;99.90
38209;DHT22;24016;52.102;11.584;2023-03-02T14:30:18;3.60;99.90
38209;DHT22;24016;52.102;11.584;2023-03-02T14:32:44;3.50;99.90
38209;DHT22;24016;52.102;11.584;2023-03-02T14:35:11;3.40;99.90
38209;DHT22;24016;52.102;11.584;2023-03-02T14:37:43;3.40;99.90
38209;DHT22;24016;52.102;11.584;2023-03-02T14:40:20;3.30;99.90
38209;DHT22;24016;52.102;11.584;2023-03-02T14:42:47;3.20;99.90
38209;DHT22;24016;52.102;11.584;2023-03-02T14:45:12;3.00;99.90
38209;DHT22;24016;52.102;11.584;2023-03-02T14:47:38;3.00;99.90
38209;DHT22;24016;52.102;11.584;2023-03-02T14:50:04;2.90;99.90
38209;DHT22;24016;52.102;11.584;2023-03-02T14:52:36;2.80;99.90
38209;DHT22;24016;52.102;11.584;2023-03-02T14:55:06;2.70;99.90
38209;DHT22;24016;52.102;11.584;2023-03-02T14:57:36;2.60;99.90
38209;DHT22;24016;52.102;11.584;2023-03-02T15:00:06;2.40;99.90
38209;DHT22;24016;52.102;11.584;2023-03-02T15:02:32;2.30;99.90
38209;DHT22;24016;52.102;11.584;2023-03-02T15:04:57;2.30;99.90
38209;DHT22;24016;52.102;11.584;2023-03-02T15:07:25;2.20;99.90
38209;DHT22;24016;52.102;11.584;2023-03-02T15:09:50;2.20;99.90
38209;DHT22;24016;52.102;11.584;2023-03-02T15:12:16;2.10;99.90
38209;DHT22;24016;52.102;11.584;2023-03-02T15:14:41;2.10;99.90
38209;DHT22;24016;52.102;11.584;2023-03-02T15:17:07;2.10;99.90
38209;DHT22;24016;52.102;11.584;2023-03-02T15:19:32;2.20;99.90
38209;DHT22;24016;52.102;11.584;2023-03-02T15:21:58;2.10;99.90
38209;DHT22;24016;52.102;11.584;2023-03-02T15:24:23;2.00;99.90
38209;DHT22;24016;52.102;11.584;2023-03-02T15:26:50;2.10;99.90
38209;DHT22;24016;52.102;11.584;2023-03-02T15:29:16;2.10;99.90
38209;DHT22;24016;52.102;11.584;2023-03-02T15:31:41;2.10;99.90
38209;DHT22;24016;52.102;11.584;2023-03-02T15:34:07;2.00;99.90
38209;DHT22;24016;52.102;11.584;2023-03-02T15:36:32;1.80;99.90
38209;DHT22;24016;52.102;11.584;2023-03-02T15:38:58;1.70;99.90
38209;DHT22;24016;52.102;11.584;2023-03-02T15:41:24;1.60;99.90
38209;DHT22;24016;52.102;11.584;2023-03-02T15:43:51;1.40;99.90
38209;DHT22;24016;52.102;11.584;2023-03-02T15:46:18;1.40;99.90
38209;DHT22;24016;52.102;11.584;2023-03-02T15:48:43;1.30;99.90
38209;DHT22;24016;52.102;11.584;2023-03-02T15:51:09;1.20;99.90
38209;DHT22;24016;52.102;11.584;2023-03-02T15:53:36;1.20;99.90
38209;DHT22;24016;52.102;11.584;2023-03-02T15:56:04;1.20;99.90
38209;DHT22;24016;52.102;11.584;2023-03-02T15:58:30;1.10;99.90
38209;DHT22;24016;52.102;11.584;2023-03-02T16:00:56;1.20;99.90
38209;DHT22;24016;52.102;11.584;2023-03-02T16:03:22;1.20;99.90
38209;DHT22;24016;52.102;11.584;2023-03-02T16:05:48;1.10;99.90
38209;DHT22;24016;52.102;11.584;2023-03-02T16:08:13;1.00;99.90
38209;DHT22;24016;52.102;11.584;2023-03-02T16:10:39;0.90;99.90
38209;DHT22;24016;52.102;11.584;2023-03-02T16:13:07;0.90;99.90
38209;DHT22;24016;52.102;11.584;2023-03-02T16:15:40;0.90;99.90
38209;DHT22;24016;52.102;11.584;2023-03-02T16:18:07;0.90;99.90
38209;DHT22;24016;52.102;11.584;2023-03-02T16:20:34;0.90;99.90
38209;DHT22;24016;52.102;11.584;2023-03-02T16:23:00;0.80;99.90
38209;DHT22;24016;52.102;11.584;2023-03-02T16:25:33;0.80;99.90
38209;DHT22;24016;52.102;11.584;2023-03-02T16:28:02;0.80;99.90
38209;DHT22;24016;52.102;11.584;2023-03-02T16:30:29;0.70;99.90
38209;DHT22;24016;52.102;11.584;2023-03-02T16:32:58;0.70;99.90